createdAt,value
2023-03-29T00:00:14.636Z,7.23
2023-03-29T00:02:48.935Z,6.57
2023-03-29T00:05:23.200Z,7.20
2023-03-29T00:08:02.001Z,5.67
2023-03-29T00:10:33.779Z,6.07
2023-03-29T00:13:04.751Z,5.60
2023-03-29T00:15:34.890Z,5.80
2023-03-29T00:18:04.993Z,5.83
2023-03-29T00:20:35.074Z,5.33
2023-03-29T00:23:07.861Z,5.03
2023-03-29T00:25:38.053Z,5.20
2023-03-29T00:28:08.320Z,5.77
2023-03-29T00:30:38.477Z,6.80
2023-03-29T00:33:09.125Z,6.93
2023-03-29T00:35:40.997Z,5.70
2023-03-29T00:38:14.057Z,6.03
2023-03-29T00:40:47.005Z,5.33
2023-03-29T00:43:18.095Z,5.30
2023-03-29T00:45:48.082Z,5.90
2023-03-29T00:48:21.742Z,5.60
2023-03-29T00:50:55.063Z,4.93
2023-03-29T00:53:34.043Z,5.47
2023-03-29T00:56:10.246Z,5.40
2023-03-29T00:58:49.594Z,6.33
2023-03-29T01:01:26.185Z,5.73
2023-03-29T01:04:03.291Z,6.00
2023-03-29T01:06:37.585Z,6.30
2023-03-29T01:09:14.191Z,6.43
2023-03-29T01:11:49.006Z,5.70
2023-03-29T01:14:23.902Z,5.90
2023-03-29T01:16:54.552Z,6.07
2023-03-29T01:19:29.637Z,5.93
2023-03-29T01:22:15.674Z,6.20
2023-03-29T01:25:11.366Z,6.57
2023-03-29T01:27:52.778Z,5.90
2023-03-29T01:30:29.918Z,5.77
2023-03-29T01:33:03.018Z,6.57
2023-03-29T01:35:38.816Z,5.77
2023-03-29T01:38:13.606Z,5.90
2023-03-29T01:40:43.825Z,5.73
2023-03-29T01:43:26.370Z,7.23
2023-03-29T01:46:06.142Z,6.77
2023-03-29T01:48:42.008Z,6.07
2023-03-29T01:51:15.727Z,6.70
2023-03-29T01:53:50.472Z,6.60
2023-03-29T01:56:25.017Z,6.97
2023-03-29T01:59:04.157Z,6.70
2023-03-29T02:01:41.137Z,6.77
2023-03-29T02:04:17.140Z,7.13
2023-03-29T02:06:50.367Z,7.43
2023-03-29T02:09:21.119Z,6.73
2023-03-29T02:11:54.113Z,7.70
2023-03-29T02:14:29.609Z,7.87
2023-03-29T02:17:00.141Z,7.97
2023-03-29T02:19:30.381Z,8.47
2023-03-29T02:22:07.308Z,6.97
2023-03-29T02:24:40.960Z,7.60
2023-03-29T02:27:11.920Z,7.53
2023-03-29T02:29:47.099Z,6.90
2023-03-29T02:32:23.350Z,6.67
2023-03-29T02:35:00.666Z,6.90
2023-03-29T02:37:34.665Z,7.13
2023-03-29T02:40:13.148Z,6.60
2023-03-29T02:42:44.046Z,6.73
2023-03-29T02:45:20.043Z,6.33
2023-03-29T02:47:53.267Z,5.93
2023-03-29T02:50:23.658Z,5.53
2023-03-29T02:52:59.477Z,6.13
2023-03-29T02:55:34.843Z,6.50
2023-03-29T02:58:08.475Z,6.27
2023-03-29T03:00:45.259Z,5.30
2023-03-29T03:03:17.090Z,5.53
2023-03-29T03:05:51.280Z,5.07
2023-03-29T03:08:21.739Z,5.43
2023-03-29T03:10:52.692Z,5.73
2023-03-29T03:13:23.317Z,5.70
2023-03-29T03:15:57.139Z,5.77
2023-03-29T03:18:27.888Z,5.73
2023-03-29T03:20:59.393Z,5.30
2023-03-29T03:23:30.568Z,5.77
2023-03-29T03:26:00.810Z,5.60
2023-03-29T03:28:33.347Z,5.50
2023-03-29T03:31:09.203Z,5.40
2023-03-29T03:34:02.034Z,5.23
2023-03-29T03:37:25.463Z,5.70
2023-03-29T03:39:55.573Z,5.37
2023-03-29T03:42:26.958Z,18.80
2023-03-29T03:44:57.449Z,6.60
2023-03-29T03:47:48.211Z,5.30
2023-03-29T03:50:38.825Z,5.20
2023-03-29T03:53:10.110Z,5.13
2023-03-29T03:55:58.936Z,5.63
2023-03-29T03:58:35.414Z,4.93
2023-03-29T04:01:08.510Z,4.87
2023-03-29T04:03:51.132Z,4.93
2023-03-29T04:06:23.202Z,5.17
2023-03-29T04:09:13.819Z,4.60
2023-03-29T04:11:47.305Z,5.20
2023-03-29T04:14:17.431Z,4.90
2023-03-29T04:17:10.354Z,4.80
2023-03-29T04:19:56.674Z,5.87
2023-03-29T04:22:27.693Z,5.43
2023-03-29T04:24:57.886Z,5.53
2023-03-29T04:27:43.242Z,5.00
2023-03-29T04:30:52.570Z,5.13
2023-03-29T04:33:41.453Z,4.73
2023-03-29T04:36:16.201Z,5.00
2023-03-29T04:38:48.122Z,4.73
2023-03-29T04:41:20.201Z,4.70
2023-03-29T04:43:53.888Z,5.40
2023-03-29T04:46:34.721Z,4.80
2023-03-29T04:49:25.925Z,5.00
2023-03-29T04:52:00.971Z,6.03
2023-03-29T04:54:33.615Z,4.70
2023-03-29T04:57:24.025Z,9.57
2023-03-29T05:00:15.303Z,5.20
2023-03-29T05:03:04.620Z,4.57
2023-03-29T05:05:37.658Z,4.20
2023-03-29T05:08:10.863Z,4.40
2023-03-29T05:11:01.224Z,5.50
2023-03-29T05:13:32.472Z,5.93
2023-03-29T05:16:07.047Z,6.27
2023-03-29T05:18:37.421Z,5.53
2023-03-29T05:21:09.596Z,5.63
2023-03-29T05:23:43.540Z,5.30
2023-03-29T05:26:19.294Z,4.80
2023-03-29T05:28:54.231Z,5.50
2023-03-29T05:31:24.989Z,5.00
2023-03-29T05:33:57.833Z,6.07
2023-03-29T05:36:29.117Z,5.60
2023-03-29T05:39:02.460Z,5.33
2023-03-29T05:41:32.880Z,5.57
2023-03-29T05:44:23.933Z,6.17
2023-03-29T05:46:59.915Z,5.50
2023-03-29T05:49:30.210Z,5.37
2023-03-29T05:52:13.230Z,5.93
2023-03-29T05:54:46.753Z,5.30
2023-03-29T05:57:17.157Z,5.13
2023-03-29T05:59:47.577Z,5.07
2023-03-29T06:02:19.059Z,5.13
2023-03-29T06:04:55.591Z,5.07
2023-03-29T06:07:25.994Z,5.60
2023-03-29T06:10:30.854Z,5.30
2023-03-29T06:13:15.276Z,4.90
2023-03-29T06:15:45.576Z,6.10
2023-03-29T06:18:16.194Z,5.57
2023-03-29T06:20:46.564Z,4.57
2023-03-29T06:23:17.226Z,4.70
2023-03-29T06:25:51.611Z,5.23
2023-03-29T06:28:22.764Z,5.13
2023-03-29T06:30:54.223Z,5.40
2023-03-29T06:33:25.547Z,4.90
2023-03-29T06:36:04.698Z,5.33
2023-03-29T06:38:35.520Z,4.90
2023-03-29T06:41:11.276Z,4.90
2023-03-29T06:44:01.835Z,5.07
2023-03-29T06:46:37.645Z,6.03
2023-03-29T06:49:12.685Z,5.97
2023-03-29T06:51:57.508Z,4.87
2023-03-29T06:54:28.169Z,6.57
2023-03-29T06:57:08.109Z,6.30
2023-03-29T06:59:41.351Z,5.77
2023-03-29T07:02:19.193Z,4.97
2023-03-29T07:04:56.371Z,6.13
2023-03-29T07:07:56.884Z,5.57
2023-03-29T07:10:43.913Z,5.90
2023-03-29T07:13:35.123Z,4.40
2023-03-29T07:16:09.198Z,5.73
2023-03-29T07:19:09.349Z,5.30
2023-03-29T07:22:09.393Z,4.90
2023-03-29T07:24:53.531Z,4.77
2023-03-29T07:27:23.859Z,5.83
2023-03-29T07:29:57.050Z,4.77
2023-03-29T07:32:28.293Z,5.93
2023-03-29T07:35:32.956Z,4.93
2023-03-29T07:38:04.263Z,5.87
2023-03-29T07:40:35.658Z,4.70
2023-03-29T07:43:24.452Z,5.67
2023-03-29T07:45:59.489Z,5.13
2023-03-29T07:48:30.287Z,5.43
2023-03-29T07:51:04.441Z,5.27
2023-03-29T07:53:43.393Z,5.20
2023-03-29T07:56:50.097Z,5.60
2023-03-29T07:59:55.544Z,4.97
2023-03-29T08:02:33.028Z,4.80
2023-03-29T08:05:05.651Z,4.50
2023-03-29T08:07:54.517Z,7.97
2023-03-29T08:10:50.785Z,9.20
2023-03-29T08:13:42.003Z,6.60
2023-03-29T08:16:30.457Z,4.70
2023-03-29T08:19:17.748Z,4.80
2023-03-29T08:21:57.186Z,4.87
2023-03-29T08:24:30.167Z,4.63
2023-03-29T08:27:05.001Z,5.00
2023-03-29T08:29:35.397Z,5.17
2023-03-29T08:32:09.137Z,4.77
2023-03-29T08:34:44.606Z,5.07
2023-03-29T08:37:40.263Z,4.23
2023-03-29T08:40:14.410Z,6.33
2023-03-29T08:43:28.747Z,12.80
2023-03-29T08:46:35.399Z,4.37
2023-03-29T08:49:30.974Z,5.67
2023-03-29T08:52:14.957Z,5.03
2023-03-29T08:54:48.881Z,4.30
2023-03-29T08:57:35.471Z,4.10
2023-03-29T09:00:23.368Z,4.40
2023-03-29T09:02:57.636Z,4.43
2023-03-29T09:05:32.513Z,4.77
2023-03-29T09:08:30.577Z,4.97
2023-03-29T09:11:16.533Z,5.20
2023-03-29T09:13:54.349Z,4.30
2023-03-29T09:16:31.713Z,4.40
2023-03-29T09:19:10.899Z,4.27
2023-03-29T09:21:48.206Z,4.50
2023-03-29T09:24:45.613Z,4.30
2023-03-29T09:27:24.661Z,4.03
2023-03-29T09:30:07.999Z,4.90
2023-03-29T09:33:14.511Z,4.30
2023-03-29T09:36:04.773Z,4.20
2023-03-29T09:38:42.570Z,3.87
2023-03-29T09:41:24.969Z,4.20
2023-03-29T09:44:00.524Z,6.50
2023-03-29T09:46:40.558Z,5.10
2023-03-29T09:49:18.296Z,7.33
2023-03-29T09:51:53.170Z,4.13
2023-03-29T09:54:24.372Z,5.23
2023-03-29T09:57:21.573Z,4.37
2023-03-29T09:59:54.455Z,4.60
2023-03-29T10:02:25.315Z,4.50
2023-03-29T10:05:00.985Z,4.40
2023-03-29T10:07:44.811Z,3.13
2023-03-29T10:10:25.371Z,3.77
2023-03-29T10:13:03.484Z,3.50
2023-03-29T10:52:51.409Z,4.13
2023-03-29T10:55:22.748Z,4.00
2023-03-29T10:58:04.739Z,4.47
2023-03-29T11:00:40.156Z,3.80
2023-03-29T11:03:43.580Z,4.50
2023-03-29T11:06:22.543Z,4.63
2023-03-29T11:09:01.742Z,7.37
2023-03-29T11:12:12.185Z,15.37
2023-03-29T11:14:56.229Z,4.57
2023-03-29T11:17:41.145Z,4.70
2023-03-29T11:20:23.135Z,4.47
2023-03-29T11:23:01.610Z,4.70
2023-03-29T11:25:44.881Z,4.63
2023-03-29T11:28:22.511Z,5.13
2023-03-29T11:31:05.311Z,4.77
2023-03-29T11:33:47.469Z,5.20
2023-03-29T11:36:24.170Z,5.00
2023-03-29T11:39:06.796Z,5.00
2023-03-29T11:41:43.239Z,4.63
2023-03-29T11:44:19.977Z,4.40
2023-03-29T11:46:57.494Z,5.07
2023-03-29T11:49:32.381Z,5.50
2023-03-29T11:52:08.759Z,4.97
2023-03-29T11:54:44.966Z,5.10
2023-03-29T11:57:24.095Z,4.80
2023-03-29T12:00:02.959Z,5.30
2023-03-29T12:02:48.215Z,4.57
2023-03-29T12:05:25.166Z,4.83
2023-03-29T12:08:02.389Z,4.87
2023-03-29T12:10:38.981Z,4.73
2023-03-29T12:13:20.677Z,5.47
2023-03-29T12:16:00.381Z,5.50
2023-03-29T12:18:36.478Z,5.70
2023-03-29T12:21:28.390Z,5.70
2023-03-29T12:24:02.912Z,5.40
2023-03-29T12:26:48.696Z,5.37
2023-03-29T12:29:40.446Z,5.57
2023-03-29T12:32:32.020Z,5.60
2023-03-29T12:35:27.884Z,6.03
2023-03-29T12:38:25.291Z,6.10
2023-03-29T12:41:22.754Z,5.67
2023-03-29T12:44:36.015Z,5.60
2023-03-29T12:47:31.059Z,5.60
2023-03-29T12:50:04.736Z,6.20
2023-03-29T12:52:40.052Z,6.00
2023-03-29T12:55:26.701Z,5.37
2023-03-29T12:58:09.797Z,5.90
2023-03-29T13:00:50.570Z,5.67
2023-03-29T13:03:25.471Z,5.60
2023-03-29T13:06:05.440Z,5.90
2023-03-29T13:08:41.578Z,6.43
2023-03-29T13:11:30.899Z,6.27
2023-03-29T13:14:14.152Z,5.90
2023-03-29T13:16:50.204Z,5.70
2023-03-29T13:19:33.217Z,6.03
2023-03-29T13:22:25.639Z,5.97
2023-03-29T13:25:17.266Z,4.90
2023-03-29T13:27:55.714Z,4.60
2023-03-29T13:30:37.890Z,5.47
2023-03-29T13:33:31.658Z,5.83
2023-03-29T13:36:08.723Z,5.80
2023-03-29T13:38:48.917Z,7.63
2023-03-29T13:41:34.101Z,5.83
2023-03-29T13:44:04.255Z,10.20
2023-03-29T13:46:42.234Z,5.83
2023-03-29T13:49:23.501Z,5.77
2023-03-29T13:52:09.500Z,4.80
2023-03-29T13:54:45.985Z,4.83
2023-03-29T13:57:20.296Z,4.47
2023-03-29T13:59:59.968Z,4.90
2023-03-29T14:02:37.926Z,4.70
2023-03-29T14:05:14.927Z,4.47
2023-03-29T14:07:49.762Z,4.73
2023-03-29T14:10:24.659Z,4.80
2023-03-29T14:12:57.050Z,5.33
2023-03-29T14:15:30.173Z,4.60
2023-03-29T14:18:01.625Z,4.73
2023-03-29T14:20:36.305Z,5.30
2023-03-29T14:23:15.622Z,4.70
2023-03-29T14:25:46.859Z,5.37
2023-03-29T14:28:26.105Z,4.87
2023-03-29T14:30:57.476Z,5.43
2023-03-29T14:33:29.174Z,6.00
2023-03-29T14:36:07.657Z,5.23
2023-03-29T14:38:39.466Z,5.23
2023-03-29T14:41:10.477Z,5.73
2023-03-29T14:43:41.033Z,5.37
2023-03-29T14:46:11.620Z,5.90
2023-03-29T14:48:42.958Z,5.20
2023-03-29T14:51:16.383Z,5.83
2023-03-29T14:53:47.478Z,6.33
2023-03-29T14:56:24.326Z,6.07
2023-03-29T14:58:57.447Z,5.53
2023-03-29T15:01:29.302Z,4.80
2023-03-29T15:04:04.850Z,6.20
2023-03-29T15:06:42.548Z,5.60
2023-03-29T15:09:20.188Z,5.57
2023-03-29T15:11:58.212Z,5.73
2023-03-29T15:14:31.149Z,5.60
2023-03-29T15:17:08.438Z,6.03
2023-03-29T15:19:39.486Z,5.90
2023-03-29T15:22:14.299Z,6.33
2023-03-29T15:24:47.516Z,6.53
2023-03-29T15:27:19.793Z,6.57
2023-03-29T15:29:49.908Z,7.33
2023-03-29T15:32:25.031Z,6.57
2023-03-29T15:35:02.016Z,7.17
2023-03-29T15:37:34.980Z,6.67
2023-03-29T15:40:10.140Z,6.80
2023-03-29T15:42:41.856Z,7.10
2023-03-29T15:45:18.337Z,16.07
2023-03-29T15:47:48.879Z,7.80
2023-03-29T15:50:26.662Z,7.60
2023-03-29T15:53:34.470Z,7.73
2023-03-29T15:59:38.069Z,8.17
2023-03-29T16:02:16.799Z,7.93
2023-03-29T16:04:46.889Z,8.10
2023-03-29T16:07:21.127Z,8.50
2023-03-29T16:09:51.882Z,24.07
2023-03-29T16:12:25.101Z,9.03
2023-03-29T16:14:55.217Z,8.97
2023-03-29T16:17:25.716Z,8.67
2023-03-29T16:19:55.940Z,8.87
2023-03-29T16:22:25.999Z,9.40
2023-03-29T16:24:56.295Z,8.30
2023-03-29T16:27:44.335Z,9.13
2023-03-29T16:30:17.030Z,7.90
2023-03-29T16:32:50.367Z,10.23
2023-03-29T16:35:28.226Z,9.33
2023-03-29T16:37:58.738Z,9.47
2023-03-29T16:40:29.277Z,8.57
2023-03-29T16:43:03.300Z,8.93
2023-03-29T16:45:33.581Z,9.50
2023-03-29T16:48:05.240Z,10.47
2023-03-29T16:50:35.574Z,9.97
2023-03-29T16:53:06.446Z,9.20
2023-03-29T16:55:38.350Z,10.13
2023-03-29T16:58:11.320Z,9.37
2023-03-29T17:00:46.421Z,9.27
2023-03-29T17:03:20.548Z,10.70
2023-03-29T17:05:54.659Z,10.00
2023-03-29T17:08:24.869Z,8.73
2023-03-29T17:11:01.426Z,9.67
2023-03-29T17:13:35.642Z,9.03
2023-03-29T17:16:09.985Z,9.33
2023-03-29T17:18:43.949Z,8.87
2023-03-29T17:21:14.618Z,9.37
2023-03-29T17:23:44.984Z,9.77
2023-03-29T17:26:18.616Z,9.70
2023-03-29T17:28:51.251Z,9.87
2023-03-29T17:31:21.710Z,8.93
2023-03-29T17:33:54.673Z,10.27
2023-03-29T17:36:26.171Z,8.90
2023-03-29T17:38:57.427Z,9.27
2023-03-29T17:41:29.110Z,9.00
2023-03-29T17:44:03.441Z,9.80
2023-03-29T17:46:34.609Z,10.20
2023-03-29T17:49:04.827Z,9.53
2023-03-29T17:51:35.109Z,9.87
2023-03-29T17:54:14.916Z,9.10
2023-03-29T17:56:45.197Z,8.90
2023-03-29T17:59:18.032Z,9.33
2023-03-29T18:01:48.395Z,9.27
2023-03-29T18:04:18.981Z,9.03
2023-03-29T18:06:49.255Z,9.10
2023-03-29T18:09:19.419Z,9.27
2023-03-29T18:11:49.497Z,9.70
2023-03-29T18:14:22.372Z,11.13
2023-03-29T18:16:52.477Z,11.00
2023-03-29T18:19:23.469Z,10.90
2023-03-29T18:21:54.697Z,10.47
2023-03-29T18:24:24.854Z,10.63
2023-03-29T18:26:54.948Z,10.80
2023-03-29T18:29:27.857Z,9.97
2023-03-29T18:32:02.964Z,10.80
2023-03-29T18:34:34.516Z,11.13
2023-03-29T18:37:04.599Z,10.40
2023-03-29T18:39:35.022Z,11.53
2023-03-29T18:42:05.030Z,11.57
2023-03-29T18:44:37.856Z,11.20
2023-03-29T18:47:08.487Z,12.10
2023-03-29T18:49:38.585Z,11.30
2023-03-29T18:52:09.325Z,12.47
2023-03-29T18:54:39.432Z,11.40
2023-03-29T18:57:11.639Z,11.83
2023-03-29T18:59:47.483Z,11.93
2023-03-29T19:02:17.871Z,12.30
2023-03-29T19:04:48.021Z,12.60
2023-03-29T19:07:18.204Z,12.87
2023-03-29T19:09:48.246Z,12.80
2023-03-29T19:12:18.411Z,13.60
2023-03-29T19:14:51.048Z,13.10
2023-03-29T19:17:21.200Z,12.10
2023-03-29T19:19:52.980Z,12.87
2023-03-29T19:22:23.229Z,12.03
2023-03-29T19:24:53.518Z,11.97
2023-03-29T19:27:23.600Z,12.30
2023-03-29T19:29:56.444Z,12.33
2023-03-29T19:32:26.549Z,11.97
2023-03-29T19:34:56.761Z,12.67
2023-03-29T19:37:26.818Z,11.80
2023-03-29T19:39:57.332Z,12.57
2023-03-29T19:42:27.594Z,11.47
2023-03-29T19:45:00.986Z,11.77
2023-03-29T19:47:31.329Z,14.27
2023-03-29T19:50:02.232Z,12.10
2023-03-29T19:52:32.987Z,11.97
2023-03-29T19:55:04.456Z,11.27
2023-03-29T19:57:34.608Z,11.23
2023-03-29T20:00:14.145Z,10.77
2023-03-29T20:02:44.958Z,11.40
2023-03-29T20:05:18.353Z,10.93
2023-03-29T20:07:50.212Z,10.63
2023-03-29T20:10:20.481Z,11.47
2023-03-29T20:12:52.282Z,10.97
2023-03-29T20:15:25.658Z,11.33
2023-03-29T20:17:59.351Z,10.23
2023-03-29T20:20:30.232Z,10.40
2023-03-29T20:23:05.176Z,11.07
2023-03-29T20:25:35.804Z,10.70
2023-03-29T20:28:09.394Z,10.63
2023-03-29T20:30:42.929Z,10.70
2023-03-29T20:33:13.601Z,10.43
2023-03-29T20:35:43.707Z,10.80
2023-03-29T20:38:14.347Z,13.70
2023-03-29T20:40:45.526Z,11.13
2023-03-29T20:43:19.264Z,11.13
2023-03-29T20:45:53.816Z,11.50
2023-03-29T20:48:25.321Z,10.47
2023-03-29T20:50:57.893Z,10.40
2023-03-29T20:53:34.611Z,10.30
2023-03-29T20:56:08.289Z,11.10
2023-03-29T20:58:42.352Z,10.17
2023-03-29T21:01:21.928Z,10.73
2023-03-29T21:03:52.389Z,9.90
2023-03-29T21:06:24.484Z,9.77
2023-03-29T21:08:55.264Z,10.53
2023-03-29T21:11:25.275Z,9.23
2023-03-29T21:13:58.159Z,8.63
2023-03-29T21:16:34.076Z,8.47
2023-03-29T21:19:04.343Z,9.10
2023-03-29T21:21:35.145Z,8.50
2023-03-29T21:24:05.363Z,8.47
2023-03-29T21:26:35.496Z,8.53
2023-03-29T21:29:06.307Z,8.60
2023-03-29T21:31:39.155Z,8.33
2023-03-29T21:34:09.426Z,7.50
2023-03-29T21:36:39.957Z,8.40
2023-03-29T21:39:10.063Z,8.27
2023-03-29T21:41:40.219Z,8.03
2023-03-29T21:44:10.541Z,8.90
2023-03-29T21:46:43.282Z,8.07
2023-03-29T21:49:14.176Z,8.10
2023-03-29T21:51:44.549Z,8.47
2023-03-29T21:54:14.812Z,8.33
2023-03-29T21:56:45.732Z,7.97
2023-03-29T21:59:16.177Z,8.17
2023-03-29T22:01:48.920Z,8.17
2023-03-29T22:04:29.494Z,8.40
2023-03-29T22:07:10.941Z,8.17
2023-03-29T22:09:41.418Z,8.20
2023-03-29T22:12:12.316Z,8.23
2023-03-29T22:14:42.339Z,8.83
2023-03-29T22:17:16.292Z,8.43
2023-03-29T22:19:47.616Z,8.90
2023-03-29T22:22:17.944Z,7.97
2023-03-29T22:24:47.940Z,8.43
2023-03-29T22:27:18.032Z,7.50
2023-03-29T22:29:48.529Z,7.80
2023-03-29T22:32:21.425Z,8.10
2023-03-29T22:34:51.655Z,7.90
2023-03-29T22:37:22.724Z,7.60
2023-03-29T22:39:53.172Z,8.00
2023-03-29T22:42:23.566Z,7.87
2023-03-29T22:44:53.693Z,7.60
2023-03-29T22:47:26.710Z,7.70
2023-03-29T22:49:56.901Z,7.43
2023-03-29T22:52:27.123Z,7.30
2023-03-29T22:54:57.322Z,7.33
2023-03-29T22:57:27.513Z,7.57
2023-03-29T22:59:57.957Z,7.80
2023-03-29T23:02:31.141Z,7.63
2023-03-29T23:05:01.326Z,8.57
2023-03-29T23:07:31.435Z,7.47
2023-03-29T23:10:01.976Z,7.20
2023-03-29T23:12:32.065Z,7.90
2023-03-29T23:15:02.135Z,7.90
2023-03-29T23:17:35.598Z,7.67
2023-03-29T23:20:08.611Z,7.80
2023-03-29T23:22:39.920Z,7.53
2023-03-29T23:25:11.067Z,7.77
2023-03-29T23:27:41.568Z,7.70
2023-03-29T23:30:12.784Z,7.63
2023-03-29T23:32:48.025Z,8.33
2023-03-29T23:35:18.674Z,7.80
2023-03-29T23:37:49.816Z,7.97
2023-03-29T23:40:20.131Z,7.50
2023-03-29T23:42:50.974Z,7.50
2023-03-29T23:45:22.068Z,8.13
2023-03-29T23:47:55.033Z,8.63
2023-03-29T23:50:28.941Z,7.40
2023-03-29T23:52:59.173Z,7.93
2023-03-29T23:55:29.402Z,7.80
2023-03-29T23:57:59.737Z,8.00
